sensor_id;sensor_type;location;lat;lon;timestamp;P1;durP1;ratioP1;P2;durP2;ratioP2
4933;SDS011;2482;49.154;8.254;2023-05-01T00:00:55;6.90;;;5.40;;
4933;SDS011;2482;49.154;8.254;2023-05-01T00:03:22;6.33;;;5.70;;
4933;SDS011;2482;49.154;8.254;2023-05-01T00:05:49;5.57;;;5.07;;
4933;SDS011;2482;49.154;8.254;2023-05-01T00:08:16;5.40;;;4.90;;
4933;SDS011;2482;49.154;8.254;2023-05-01T00:10:44;5.67;;;5.10;;
4933;SDS011;2482;49.154;8.254;2023-05-01T00:13:12;6.63;;;5.00;;
4933;SDS011;2482;49.154;8.254;2023-05-01T00:15:39;4.83;;;4.33;;
4933;SDS011;2482;49.154;8.254;2023-05-01T00:18:07;5.60;;;5.00;;
4933;SDS011;2482;49.154;8.254;2023-05-01T00:20:34;6.73;;;5.70;;
4933;SDS011;2482;49.154;8.254;2023-05-01T00:23:01;6.10;;;5.43;;
4933;SDS011;2482;49.154;8.254;2023-05-01T00:25:28;6.03;;;5.00;;
4933;SDS011;2482;49.154;8.254;2023-05-01T00:27:56;8.00;;;5.13;;
4933;SDS011;2482;49.154;8.254;2023-05-01T00:30:25;8.03;;;5.53;;
4933;SDS011;2482;49.154;8.254;2023-05-01T00:32:52;7.00;;;5.07;;
4933;SDS011;2482;49.154;8.254;2023-05-01T00:35:20;5.80;;;5.20;;
4933;SDS011;2482;49.154;8.254;2023-05-01T00:37:47;7.87;;;5.30;;
4933;SDS011;2482;49.154;8.254;2023-05-01T00:40:14;7.70;;;4.23;;
4933;SDS011;2482;49.154;8.254;2023-05-01T00:42:41;5.87;;;5.30;;
4933;SDS011;2482;49.154;8.254;2023-05-01T00:45:08;6.30;;;4.70;;
4933;SDS011;2482;49.154;8.254;2023-05-01T00:47:35;8.20;;;4.70;;
4933;SDS011;2482;49.154;8.254;2023-05-01T00:50:03;5.23;;;4.73;;
4933;SDS011;2482;49.154;8.254;2023-05-01T00:52:31;5.20;;;4.73;;
4933;SDS011;2482;49.154;8.254;2023-05-01T00:54:58;5.73;;;4.77;;
4933;SDS011;2482;49.154;8.254;2023-05-01T00:57:26;4.97;;;4.47;;
4933;SDS011;2482;49.154;8.254;2023-05-01T00:59:53;5.30;;;4.47;;
4933;SDS011;2482;49.154;8.254;2023-05-01T01:02:20;6.50;;;4.73;;
4933;SDS011;2482;49.154;8.254;2023-05-01T01:04:47;5.10;;;4.50;;
4933;SDS011;2482;49.154;8.254;2023-05-01T01:07:50;6.40;;;4.70;;
4933;SDS011;2482;49.154;8.254;2023-05-01T01:11:26;5.90;;;4.43;;
4933;SDS011;2482;49.154;8.254;2023-05-01T01:22:31;6.30;;;5.03;;
4933;SDS011;2482;49.154;8.254;2023-05-01T01:31:21;4.80;;;4.00;;
4933;SDS011;2482;49.154;8.254;2023-05-01T01:34:00;4.80;;;4.03;;
4933;SDS011;2482;49.154;8.254;2023-05-01T01:39:44;5.83;;;3.90;;
4933;SDS011;2482;49.154;8.254;2023-05-01T01:42:20;5.73;;;4.77;;
4933;SDS011;2482;49.154;8.254;2023-05-01T01:45:07;5.27;;;4.60;;
4933;SDS011;2482;49.154;8.254;2023-05-01T01:47:44;4.90;;;4.40;;
4933;SDS011;2482;49.154;8.254;2023-05-01T01:50:13;4.33;;;3.83;;
4933;SDS011;2482;49.154;8.254;2023-05-01T01:52:44;4.97;;;4.50;;
4933;SDS011;2482;49.154;8.254;2023-05-01T01:55:15;7.10;;;4.60;;
4933;SDS011;2482;49.154;8.254;2023-05-01T01:57:48;5.57;;;4.50;;
4933;SDS011;2482;49.154;8.254;2023-05-01T02:00:16;5.17;;;4.70;;
4933;SDS011;2482;49.154;8.254;2023-05-01T02:02:45;7.10;;;3.77;;
4933;SDS011;2482;49.154;8.254;2023-05-01T02:05:14;4.80;;;4.20;;
4933;SDS011;2482;49.154;8.254;2023-05-01T02:07:44;7.90;;;4.60;;
4933;SDS011;2482;49.154;8.254;2023-05-01T02:10:15;5.53;;;4.63;;
4933;SDS011;2482;49.154;8.254;2023-05-01T02:12:47;4.40;;;4.00;;
4933;SDS011;2482;49.154;8.254;2023-05-01T02:15:17;6.67;;;4.60;;
4933;SDS011;2482;49.154;8.254;2023-05-01T02:17:45;4.33;;;3.90;;
4933;SDS011;2482;49.154;8.254;2023-05-01T02:20:13;4.90;;;3.93;;
4933;SDS011;2482;49.154;8.254;2023-05-01T02:22:41;7.20;;;4.63;;
4933;SDS011;2482;49.154;8.254;2023-05-01T02:25:11;4.30;;;3.90;;
4933;SDS011;2482;49.154;8.254;2023-05-01T02:27:47;5.03;;;4.00;;
4933;SDS011;2482;49.154;8.254;2023-05-01T02:30:21;5.30;;;4.80;;
4933;SDS011;2482;49.154;8.254;2023-05-01T02:32:48;5.10;;;4.00;;
4933;SDS011;2482;49.154;8.254;2023-05-01T02:35:15;4.90;;;4.50;;
4933;SDS011;2482;49.154;8.254;2023-05-01T02:37:43;4.03;;;3.63;;
4933;SDS011;2482;49.154;8.254;2023-05-01T02:40:11;4.27;;;3.80;;
4933;SDS011;2482;49.154;8.254;2023-05-01T02:42:42;6.67;;;4.47;;
4933;SDS011;2482;49.154;8.254;2023-05-01T02:45:16;4.93;;;3.83;;
4933;SDS011;2482;49.154;8.254;2023-05-01T02:47:47;4.80;;;4.00;;
4933;SDS011;2482;49.154;8.254;2023-05-01T02:50:19;4.50;;;3.60;;
4933;SDS011;2482;49.154;8.254;2023-05-01T02:52:47;4.50;;;3.53;;
4933;SDS011;2482;49.154;8.254;2023-05-01T02:55:15;5.47;;;4.03;;
4933;SDS011;2482;49.154;8.254;2023-05-01T02:57:42;3.93;;;3.27;;
4933;SDS011;2482;49.154;8.254;2023-05-01T03:00:09;3.60;;;3.30;;
4933;SDS011;2482;49.154;8.254;2023-05-01T03:02:39;4.00;;;3.53;;
4933;SDS011;2482;49.154;8.254;2023-05-01T03:05:06;4.10;;;3.63;;
4933;SDS011;2482;49.154;8.254;2023-05-01T03:07:34;5.23;;;3.87;;
4933;SDS011;2482;49.154;8.254;2023-05-01T03:10:01;4.03;;;3.43;;
4933;SDS011;2482;49.154;8.254;2023-05-01T03:12:30;4.07;;;3.67;;
4933;SDS011;2482;49.154;8.254;2023-05-01T03:14:57;4.30;;;3.70;;
4933;SDS011;2482;49.154;8.254;2023-05-01T03:17:24;4.13;;;3.33;;
4933;SDS011;2482;49.154;8.254;2023-05-01T03:19:52;8.80;;;3.83;;
4933;SDS011;2482;49.154;8.254;2023-05-01T03:22:19;4.03;;;3.63;;
4933;SDS011;2482;49.154;8.254;2023-05-01T03:24:46;5.33;;;3.37;;
4933;SDS011;2482;49.154;8.254;2023-05-01T03:27:13;4.40;;;4.00;;
4933;SDS011;2482;49.154;8.254;2023-05-01T03:29:40;5.00;;;3.90;;
4933;SDS011;2482;49.154;8.254;2023-05-01T03:32:07;7.60;;;4.00;;
4933;SDS011;2482;49.154;8.254;2023-05-01T03:34:34;6.47;;;4.10;;
4933;SDS011;2482;49.154;8.254;2023-05-01T03:37:01;4.23;;;3.83;;
4933;SDS011;2482;49.154;8.254;2023-05-01T03:39:28;4.90;;;3.80;;
4933;SDS011;2482;49.154;8.254;2023-05-01T03:41:55;4.17;;;3.77;;
4933;SDS011;2482;49.154;8.254;2023-05-01T03:44:24;4.57;;;4.17;;
4933;SDS011;2482;49.154;8.254;2023-05-01T03:46:51;3.83;;;3.50;;
4933;SDS011;2482;49.154;8.254;2023-05-01T03:49:18;4.50;;;4.10;;
4933;SDS011;2482;49.154;8.254;2023-05-01T03:51:45;3.77;;;3.47;;
4933;SDS011;2482;49.154;8.254;2023-05-01T03:54:12;8.00;;;2.97;;
4933;SDS011;2482;49.154;8.254;2023-05-01T03:56:39;4.33;;;3.90;;
4933;SDS011;2482;49.154;8.254;2023-05-01T03:59:06;3.80;;;3.50;;
4933;SDS011;2482;49.154;8.254;2023-05-01T04:01:33;4.57;;;3.40;;
4933;SDS011;2482;49.154;8.254;2023-05-01T04:04:00;4.33;;;3.90;;
4933;SDS011;2482;49.154;8.254;2023-05-01T04:06:28;3.40;;;3.20;;
4933;SDS011;2482;49.154;8.254;2023-05-01T04:08:55;6.20;;;3.80;;
4933;SDS011;2482;49.154;8.254;2023-05-01T04:11:22;6.20;;;3.60;;
4933;SDS011;2482;49.154;8.254;2023-05-01T04:13:49;3.63;;;3.33;;
4933;SDS011;2482;49.154;8.254;2023-05-01T04:16:16;4.97;;;3.50;;
4933;SDS011;2482;49.154;8.254;2023-05-01T04:18:43;4.53;;;3.43;;
4933;SDS011;2482;49.154;8.254;2023-05-01T04:21:10;3.63;;;3.30;;
4933;SDS011;2482;49.154;8.254;2023-05-01T04:23:38;3.60;;;3.20;;
4933;SDS011;2482;49.154;8.254;2023-05-01T04:26:05;3.90;;;3.10;;
4933;SDS011;2482;49.154;8.254;2023-05-01T04:28:33;4.03;;;3.63;;
4933;SDS011;2482;49.154;8.254;2023-05-01T04:31:00;5.77;;;3.47;;
4933;SDS011;2482;49.154;8.254;2023-05-01T04:33:27;3.50;;;3.20;;
4933;SDS011;2482;49.154;8.254;2023-05-01T04:35:54;5.50;;;3.40;;
4933;SDS011;2482;49.154;8.254;2023-05-01T04:38:21;4.23;;;3.40;;
4933;SDS011;2482;49.154;8.254;2023-05-01T04:40:48;6.33;;;3.50;;
4933;SDS011;2482;49.154;8.254;2023-05-01T04:43:16;4.60;;;3.57;;
4933;SDS011;2482;49.154;8.254;2023-05-01T04:45:43;3.90;;;3.57;;
4933;SDS011;2482;49.154;8.254;2023-05-01T04:48:10;3.80;;;3.47;;
4933;SDS011;2482;49.154;8.254;2023-05-01T04:50:37;3.80;;;3.50;;
4933;SDS011;2482;49.154;8.254;2023-05-01T04:53:04;6.23;;;3.73;;
4933;SDS011;2482;49.154;8.254;2023-05-01T04:55:31;3.90;;;3.60;;
4933;SDS011;2482;49.154;8.254;2023-05-01T04:57:58;3.57;;;3.27;;
4933;SDS011;2482;49.154;8.254;2023-05-01T05:00:25;3.83;;;3.53;;
4933;SDS011;2482;49.154;8.254;2023-05-01T05:02:53;3.83;;;3.33;;
4933;SDS011;2482;49.154;8.254;2023-05-01T05:05:20;3.70;;;3.40;;
4933;SDS011;2482;49.154;8.254;2023-05-01T05:07:47;4.63;;;3.47;;
4933;SDS011;2482;49.154;8.254;2023-05-01T05:10:14;4.03;;;3.50;;
4933;SDS011;2482;49.154;8.254;2023-05-01T05:12:41;3.20;;;3.00;;
4933;SDS011;2482;49.154;8.254;2023-05-01T05:15:08;4.93;;;3.50;;
4933;SDS011;2482;49.154;8.254;2023-05-01T05:17:36;3.93;;;3.53;;
4933;SDS011;2482;49.154;8.254;2023-05-01T05:20:03;4.63;;;3.70;;
4933;SDS011;2482;49.154;8.254;2023-05-01T05:22:31;3.77;;;3.00;;
4933;SDS011;2482;49.154;8.254;2023-05-01T05:25:03;7.00;;;3.60;;
4933;SDS011;2482;49.154;8.254;2023-05-01T05:27:31;3.83;;;3.30;;
4933;SDS011;2482;49.154;8.254;2023-05-01T05:30:04;3.60;;;3.30;;
4933;SDS011;2482;49.154;8.254;2023-05-01T05:32:31;3.37;;;3.00;;
4933;SDS011;2482;49.154;8.254;2023-05-01T05:34:58;3.67;;;3.37;;
4933;SDS011;2482;49.154;8.254;2023-05-01T05:37:26;3.53;;;3.20;;
4933;SDS011;2482;49.154;8.254;2023-05-01T05:39:53;4.40;;;3.97;;
4933;SDS011;2482;49.154;8.254;2023-05-01T05:42:20;4.13;;;3.57;;
4933;SDS011;2482;49.154;8.254;2023-05-01T05:44:47;3.63;;;3.30;;
4933;SDS011;2482;49.154;8.254;2023-05-01T05:47:14;5.13;;;3.60;;
4933;SDS011;2482;49.154;8.254;2023-05-01T05:49:41;4.90;;;3.80;;
4933;SDS011;2482;49.154;8.254;2023-05-01T05:52:08;4.43;;;3.23;;
4933;SDS011;2482;49.154;8.254;2023-05-01T05:54:35;3.27;;;2.90;;
4933;SDS011;2482;49.154;8.254;2023-05-01T05:57:02;4.47;;;3.57;;
4933;SDS011;2482;49.154;8.254;2023-05-01T05:59:29;3.97;;;3.27;;
4933;SDS011;2482;49.154;8.254;2023-05-01T06:01:56;6.53;;;3.43;;
4933;SDS011;2482;49.154;8.254;2023-05-01T06:04:23;4.50;;;3.10;;
4933;SDS011;2482;49.154;8.254;2023-05-01T06:06:50;5.37;;;3.60;;
4933;SDS011;2482;49.154;8.254;2023-05-01T06:09:17;4.20;;;3.53;;
4933;SDS011;2482;49.154;8.254;2023-05-01T06:11:45;4.93;;;3.90;;
4933;SDS011;2482;49.154;8.254;2023-05-01T06:14:13;4.10;;;3.47;;
4933;SDS011;2482;49.154;8.254;2023-05-01T06:16:40;4.40;;;3.20;;
4933;SDS011;2482;49.154;8.254;2023-05-01T06:19:07;3.83;;;3.53;;
4933;SDS011;2482;49.154;8.254;2023-05-01T06:21:37;4.50;;;3.67;;
4933;SDS011;2482;49.154;8.254;2023-05-01T06:24:04;6.03;;;3.03;;
4933;SDS011;2482;49.154;8.254;2023-05-01T06:26:31;3.50;;;3.20;;
4933;SDS011;2482;49.154;8.254;2023-05-01T06:28:58;4.20;;;3.80;;
4933;SDS011;2482;49.154;8.254;2023-05-01T06:31:25;4.27;;;3.87;;
4933;SDS011;2482;49.154;8.254;2023-05-01T06:33:52;8.93;;;3.63;;
4933;SDS011;2482;49.154;8.254;2023-05-01T06:36:19;5.80;;;3.33;;
4933;SDS011;2482;49.154;8.254;2023-05-01T06:38:46;7.23;;;3.67;;
4933;SDS011;2482;49.154;8.254;2023-05-01T06:41:14;4.00;;;3.60;;
4933;SDS011;2482;49.154;8.254;2023-05-01T06:43:42;4.30;;;3.53;;
4933;SDS011;2482;49.154;8.254;2023-05-01T06:46:09;6.73;;;3.30;;
4933;SDS011;2482;49.154;8.254;2023-05-01T06:48:36;4.00;;;3.00;;
4933;SDS011;2482;49.154;8.254;2023-05-01T06:51:03;3.80;;;3.20;;
4933;SDS011;2482;49.154;8.254;2023-05-01T06:53:30;5.53;;;3.57;;
4933;SDS011;2482;49.154;8.254;2023-05-01T06:55:57;4.57;;;3.77;;
4933;SDS011;2482;49.154;8.254;2023-05-01T06:58:24;5.30;;;3.50;;
4933;SDS011;2482;49.154;8.254;2023-05-01T07:00:52;3.90;;;3.50;;
4933;SDS011;2482;49.154;8.254;2023-05-01T07:03:19;4.57;;;3.53;;
4933;SDS011;2482;49.154;8.254;2023-05-01T07:05:47;4.90;;;3.90;;
4933;SDS011;2482;49.154;8.254;2023-05-01T07:08:13;4.57;;;4.10;;
4933;SDS011;2482;49.154;8.254;2023-05-01T07:10:40;4.93;;;4.00;;
4933;SDS011;2482;49.154;8.254;2023-05-01T07:13:08;5.23;;;4.07;;
4933;SDS011;2482;49.154;8.254;2023-05-01T07:15:35;4.63;;;4.20;;
4933;SDS011;2482;49.154;8.254;2023-05-01T07:18:02;8.63;;;4.07;;
4933;SDS011;2482;49.154;8.254;2023-05-01T07:20:31;4.30;;;3.90;;
4933;SDS011;2482;49.154;8.254;2023-05-01T07:22:59;5.83;;;3.67;;
4933;SDS011;2482;49.154;8.254;2023-05-01T07:25:26;4.00;;;3.60;;
4933;SDS011;2482;49.154;8.254;2023-05-01T07:27:53;4.20;;;3.77;;
4933;SDS011;2482;49.154;8.254;2023-05-01T07:30:20;3.73;;;3.43;;
4933;SDS011;2482;49.154;8.254;2023-05-01T07:32:47;4.30;;;3.80;;
4933;SDS011;2482;49.154;8.254;2023-05-01T07:35:14;5.80;;;4.13;;
4933;SDS011;2482;49.154;8.254;2023-05-01T07:37:41;3.67;;;3.37;;
4933;SDS011;2482;49.154;8.254;2023-05-01T07:40:09;4.00;;;3.40;;
4933;SDS011;2482;49.154;8.254;2023-05-01T07:42:36;4.03;;;3.73;;
4933;SDS011;2482;49.154;8.254;2023-05-01T07:45:04;4.13;;;3.13;;
4933;SDS011;2482;49.154;8.254;2023-05-01T07:47:32;3.20;;;3.00;;
4933;SDS011;2482;49.154;8.254;2023-05-01T07:50:00;4.90;;;3.43;;
4933;SDS011;2482;49.154;8.254;2023-05-01T07:52:27;4.20;;;3.80;;
4933;SDS011;2482;49.154;8.254;2023-05-01T07:54:54;4.00;;;3.60;;
4933;SDS011;2482;49.154;8.254;2023-05-01T07:57:21;4.70;;;3.37;;
4933;SDS011;2482;49.154;8.254;2023-05-01T07:59:53;4.37;;;3.40;;
4933;SDS011;2482;49.154;8.254;2023-05-01T08:02:22;3.83;;;3.40;;
4933;SDS011;2482;49.154;8.254;2023-05-01T08:04:49;6.30;;;3.60;;
4933;SDS011;2482;49.154;8.254;2023-05-01T08:07:17;5.23;;;4.00;;
4933;SDS011;2482;49.154;8.254;2023-05-01T08:09:44;5.43;;;3.97;;
4933;SDS011;2482;49.154;8.254;2023-05-01T08:12:12;3.77;;;2.97;;
4933;SDS011;2482;49.154;8.254;2023-05-01T08:14:39;3.57;;;3.27;;
4933;SDS011;2482;49.154;8.254;2023-05-01T08:17:06;4.30;;;3.40;;
4933;SDS011;2482;49.154;8.254;2023-05-01T08:19:33;4.00;;;3.60;;
4933;SDS011;2482;49.154;8.254;2023-05-01T08:22:00;4.13;;;3.70;;
4933;SDS011;2482;49.154;8.254;2023-05-01T08:24:28;5.90;;;3.40;;
4933;SDS011;2482;49.154;8.254;2023-05-01T08:26:55;5.13;;;3.90;;
4933;SDS011;2482;49.154;8.254;2023-05-01T08:29:22;10.30;;;3.60;;
4933;SDS011;2482;49.154;8.254;2023-05-01T08:31:49;4.80;;;3.70;;
4933;SDS011;2482;49.154;8.254;2023-05-01T08:34:16;4.00;;;3.70;;
4933;SDS011;2482;49.154;8.254;2023-05-01T08:36:43;3.80;;;3.10;;
4933;SDS011;2482;49.154;8.254;2023-05-01T08:39:10;4.30;;;3.90;;
4933;SDS011;2482;49.154;8.254;2023-05-01T08:41:37;4.40;;;3.90;;
4933;SDS011;2482;49.154;8.254;2023-05-01T08:44:05;3.50;;;3.20;;
4933;SDS011;2482;49.154;8.254;2023-05-01T08:46:42;6.17;;;3.83;;
4933;SDS011;2482;49.154;8.254;2023-05-01T08:49:13;5.83;;;3.90;;
4933;SDS011;2482;49.154;8.254;2023-05-01T08:51:44;4.30;;;3.90;;
4933;SDS011;2482;49.154;8.254;2023-05-01T08:54:13;4.83;;;4.20;;
4933;SDS011;2482;49.154;8.254;2023-05-01T08:56:43;5.13;;;3.87;;
4933;SDS011;2482;49.154;8.254;2023-05-01T08:59:13;5.10;;;3.20;;
4933;SDS011;2482;49.154;8.254;2023-05-01T09:01:41;4.90;;;4.27;;
4933;SDS011;2482;49.154;8.254;2023-05-01T09:04:10;8.13;;;3.87;;
4933;SDS011;2482;49.154;8.254;2023-05-01T09:06:37;4.30;;;3.90;;
4933;SDS011;2482;49.154;8.254;2023-05-01T09:09:05;4.20;;;3.80;;
4933;SDS011;2482;49.154;8.254;2023-05-01T09:11:32;6.50;;;4.03;;
4933;SDS011;2482;49.154;8.254;2023-05-01T09:13:59;3.93;;;3.50;;
4933;SDS011;2482;49.154;8.254;2023-05-01T09:16:30;4.33;;;3.93;;
4933;SDS011;2482;49.154;8.254;2023-05-01T09:18:57;4.93;;;4.20;;
4933;SDS011;2482;49.154;8.254;2023-05-01T09:21:26;6.70;;;4.33;;
4933;SDS011;2482;49.154;8.254;2023-05-01T09:23:54;4.20;;;3.83;;
4933;SDS011;2482;49.154;8.254;2023-05-01T09:26:21;4.00;;;3.60;;
4933;SDS011;2482;49.154;8.254;2023-05-01T09:28:48;4.83;;;4.03;;
4933;SDS011;2482;49.154;8.254;2023-05-01T09:31:23;5.30;;;3.83;;
4933;SDS011;2482;49.154;8.254;2023-05-01T09:33:57;4.40;;;4.00;;
4933;SDS011;2482;49.154;8.254;2023-05-01T09:36:26;5.57;;;4.03;;
4933;SDS011;2482;49.154;8.254;2023-05-01T09:38:59;4.63;;;3.70;;
4933;SDS011;2482;49.154;8.254;2023-05-01T09:41:27;7.13;;;5.07;;
4933;SDS011;2482;49.154;8.254;2023-05-01T09:43:56;5.87;;;3.87;;
4933;SDS011;2482;49.154;8.254;2023-05-01T09:46:25;4.40;;;4.00;;
4933;SDS011;2482;49.154;8.254;2023-05-01T09:48:53;4.60;;;3.77;;
4933;SDS011;2482;49.154;8.254;2023-05-01T09:51:29;4.10;;;3.70;;
4933;SDS011;2482;49.154;8.254;2023-05-01T09:53:59;4.23;;;3.67;;
4933;SDS011;2482;49.154;8.254;2023-05-01T09:56:28;4.63;;;3.90;;
4933;SDS011;2482;49.154;8.254;2023-05-01T09:58:58;4.80;;;3.80;;
4933;SDS011;2482;49.154;8.254;2023-05-01T10:01:41;6.10;;;3.97;;
4933;SDS011;2482;49.154;8.254;2023-05-01T10:04:11;4.50;;;3.80;;
4933;SDS011;2482;49.154;8.254;2023-05-01T10:06:39;5.20;;;3.63;;
4933;SDS011;2482;49.154;8.254;2023-05-01T10:09:07;5.90;;;3.90;;
4933;SDS011;2482;49.154;8.254;2023-05-01T10:11:52;4.50;;;3.60;;
4933;SDS011;2482;49.154;8.254;2023-05-01T10:14:24;8.53;;;3.63;;
4933;SDS011;2482;49.154;8.254;2023-05-01T10:16:53;4.00;;;3.60;;
4933;SDS011;2482;49.154;8.254;2023-05-01T10:19:23;4.53;;;4.13;;
4933;SDS011;2482;49.154;8.254;2023-05-01T10:21:50;6.63;;;4.00;;
4933;SDS011;2482;49.154;8.254;2023-05-01T10:24:18;5.50;;;3.83;;
4933;SDS011;2482;49.154;8.254;2023-05-01T10:26:47;6.50;;;4.23;;
4933;SDS011;2482;49.154;8.254;2023-05-01T10:29:15;4.77;;;4.37;;
4933;SDS011;2482;49.154;8.254;2023-05-01T10:31:44;5.07;;;3.40;;
4933;SDS011;2482;49.154;8.254;2023-05-01T10:34:14;4.60;;;4.07;;
4933;SDS011;2482;49.154;8.254;2023-05-01T10:36:46;4.23;;;3.83;;
4933;SDS011;2482;49.154;8.254;2023-05-01T10:39:30;6.40;;;3.77;;
4933;SDS011;2482;49.154;8.254;2023-05-01T10:42:00;5.00;;;4.53;;
4933;SDS011;2482;49.154;8.254;2023-05-01T10:44:31;7.87;;;6.87;;
4933;SDS011;2482;49.154;8.254;2023-05-01T10:47:33;4.60;;;4.20;;
4933;SDS011;2482;49.154;8.254;2023-05-01T10:55:39;4.43;;;4.03;;
4933;SDS011;2482;49.154;8.254;2023-05-01T10:58:13;4.67;;;4.27;;
4933;SDS011;2482;49.154;8.254;2023-05-01T11:04:03;4.10;;;3.70;;
4933;SDS011;2482;49.154;8.254;2023-05-01T11:12:12;4.50;;;4.20;;
4933;SDS011;2482;49.154;8.254;2023-05-01T11:20:07;6.63;;;4.30;;
4933;SDS011;2482;49.154;8.254;2023-05-01T11:22:53;4.67;;;3.93;;
4933;SDS011;2482;49.154;8.254;2023-05-01T11:25:31;4.83;;;4.33;;
4933;SDS011;2482;49.154;8.254;2023-05-01T11:28:00;4.50;;;3.90;;
4933;SDS011;2482;49.154;8.254;2023-05-01T11:30:38;6.30;;;4.17;;
4933;SDS011;2482;49.154;8.254;2023-05-01T11:33:05;5.40;;;4.33;;
4933;SDS011;2482;49.154;8.254;2023-05-01T11:35:36;5.10;;;4.40;;
4933;SDS011;2482;49.154;8.254;2023-05-01T11:38:04;5.50;;;4.07;;
4933;SDS011;2482;49.154;8.254;2023-05-01T11:40:32;5.20;;;4.67;;
4933;SDS011;2482;49.154;8.254;2023-05-01T11:43:03;5.23;;;4.77;;
4933;SDS011;2482;49.154;8.254;2023-05-01T11:45:34;8.50;;;4.47;;
4933;SDS011;2482;49.154;8.254;2023-05-01T11:48:03;4.97;;;4.57;;
4933;SDS011;2482;49.154;8.254;2023-05-01T11:50:39;4.97;;;4.47;;
4933;SDS011;2482;49.154;8.254;2023-05-01T11:53:10;7.13;;;4.93;;
4933;SDS011;2482;49.154;8.254;2023-05-01T11:55:40;6.80;;;4.60;;
4933;SDS011;2482;49.154;8.254;2023-05-01T11:58:08;6.80;;;4.30;;
4933;SDS011;2482;49.154;8.254;2023-05-01T12:00:40;5.67;;;4.60;;
4933;SDS011;2482;49.154;8.254;2023-05-01T12:03:09;6.87;;;4.63;;
4933;SDS011;2482;49.154;8.254;2023-05-01T12:05:40;5.20;;;4.70;;
4933;SDS011;2482;49.154;8.254;2023-05-01T12:08:14;4.70;;;4.30;;
4933;SDS011;2482;49.154;8.254;2023-05-01T12:10:45;5.53;;;4.93;;
4933;SDS011;2482;49.154;8.254;2023-05-01T12:13:23;5.63;;;5.00;;
4933;SDS011;2482;49.154;8.254;2023-05-01T12:15:52;4.90;;;4.50;;
4933;SDS011;2482;49.154;8.254;2023-05-01T12:18:20;5.90;;;5.10;;
4933;SDS011;2482;49.154;8.254;2023-05-01T12:20:54;5.33;;;4.83;;
4933;SDS011;2482;49.154;8.254;2023-05-01T12:23:34;6.20;;;4.70;;
4933;SDS011;2482;49.154;8.254;2023-05-01T12:26:15;7.33;;;6.00;;
4933;SDS011;2482;49.154;8.254;2023-05-01T12:28:54;5.00;;;4.60;;
4933;SDS011;2482;49.154;8.254;2023-05-01T12:31:27;5.07;;;4.57;;
4933;SDS011;2482;49.154;8.254;2023-05-01T12:33:58;9.33;;;5.00;;
4933;SDS011;2482;49.154;8.254;2023-05-01T12:36:32;5.50;;;5.00;;
4933;SDS011;2482;49.154;8.254;2023-05-01T12:39:02;7.27;;;5.90;;
4933;SDS011;2482;49.154;8.254;2023-05-01T12:41:46;5.80;;;5.20;;
4933;SDS011;2482;49.154;8.254;2023-05-01T12:44:18;5.93;;;5.37;;
4933;SDS011;2482;49.154;8.254;2023-05-01T12:46:55;5.83;;;5.23;;
4933;SDS011;2482;49.154;8.254;2023-05-01T12:49:26;6.23;;;5.43;;
4933;SDS011;2482;49.154;8.254;2023-05-01T12:51:55;5.60;;;5.10;;
4933;SDS011;2482;49.154;8.254;2023-05-01T12:54:27;6.57;;;5.80;;
4933;SDS011;2482;49.154;8.254;2023-05-01T12:57:12;6.30;;;5.70;;
4933;SDS011;2482;49.154;8.254;2023-05-01T12:59:41;7.00;;;4.77;;
4933;SDS011;2482;49.154;8.254;2023-05-01T13:02:12;6.33;;;5.40;;
4933;SDS011;2482;49.154;8.254;2023-05-01T13:04:45;6.80;;;6.20;;
4933;SDS011;2482;49.154;8.254;2023-05-01T13:07:15;6.83;;;6.10;;
4933;SDS011;2482;49.154;8.254;2023-05-01T13:12:23;6.27;;;5.67;;
4933;SDS011;2482;49.154;8.254;2023-05-01T13:14:53;8.07;;;6.10;;
4933;SDS011;2482;49.154;8.254;2023-05-01T13:17:21;6.63;;;6.10;;
4933;SDS011;2482;49.154;8.254;2023-05-01T13:22:30;5.80;;;5.40;;
4933;SDS011;2482;49.154;8.254;2023-05-01T13:24:58;8.00;;;5.50;;
4933;SDS011;2482;49.154;8.254;2023-05-01T13:27:27;6.67;;;5.97;;
4933;SDS011;2482;49.154;8.254;2023-05-01T13:29:55;8.70;;;6.27;;
4933;SDS011;2482;49.154;8.254;2023-05-01T13:32:25;7.07;;;6.37;;
4933;SDS011;2482;49.154;8.254;2023-05-01T13:34:52;10.67;;;5.80;;
4933;SDS011;2482;49.154;8.254;2023-05-01T13:37:19;9.37;;;6.13;;
4933;SDS011;2482;49.154;8.254;2023-05-01T13:39:46;7.40;;;5.80;;
4933;SDS011;2482;49.154;8.254;2023-05-01T13:42:19;8.60;;;5.90;;
4933;SDS011;2482;49.154;8.254;2023-05-01T13:44:50;7.30;;;5.70;;
4933;SDS011;2482;49.154;8.254;2023-05-01T13:47:21;6.00;;;5.20;;
4933;SDS011;2482;49.154;8.254;2023-05-01T13:49:52;6.40;;;5.80;;
4933;SDS011;2482;49.154;8.254;2023-05-01T13:52:20;6.00;;;5.50;;
4933;SDS011;2482;49.154;8.254;2023-05-01T13:54:47;6.20;;;5.60;;
4933;SDS011;2482;49.154;8.254;2023-05-01T13:57:14;6.63;;;5.80;;
4933;SDS011;2482;49.154;8.254;2023-05-01T13:59:43;5.93;;;5.43;;
4933;SDS011;2482;49.154;8.254;2023-05-01T14:02:25;7.63;;;5.70;;
4933;SDS011;2482;49.154;8.254;2023-05-01T14:04:54;6.40;;;5.13;;
4933;SDS011;2482;49.154;8.254;2023-05-01T14:07:25;6.40;;;5.00;;
4933;SDS011;2482;49.154;8.254;2023-05-01T14:09:53;5.63;;;5.13;;
4933;SDS011;2482;49.154;8.254;2023-05-01T14:12:25;5.90;;;5.40;;
4933;SDS011;2482;49.154;8.254;2023-05-01T14:14:54;7.33;;;6.07;;
4933;SDS011;2482;49.154;8.254;2023-05-01T14:17:29;9.03;;;6.07;;
4933;SDS011;2482;49.154;8.254;2023-05-01T14:19:58;6.37;;;5.77;;
4933;SDS011;2482;49.154;8.254;2023-05-01T14:22:39;6.30;;;5.70;;
4933;SDS011;2482;49.154;8.254;2023-05-01T14:27:52;6.97;;;5.93;;
4933;SDS011;2482;49.154;8.254;2023-05-01T14:30:30;6.20;;;5.30;;
4933;SDS011;2482;49.154;8.254;2023-05-01T14:33:02;6.10;;;5.50;;
4933;SDS011;2482;49.154;8.254;2023-05-01T14:35:55;6.40;;;5.50;;
4933;SDS011;2482;49.154;8.254;2023-05-01T14:38:23;5.70;;;4.70;;
4933;SDS011;2482;49.154;8.254;2023-05-01T14:40:51;5.63;;;4.97;;
4933;SDS011;2482;49.154;8.254;2023-05-01T14:43:19;5.30;;;4.77;;
4933;SDS011;2482;49.154;8.254;2023-05-01T14:45:47;5.77;;;5.13;;
4933;SDS011;2482;49.154;8.254;2023-05-01T14:48:22;6.87;;;5.00;;
4933;SDS011;2482;49.154;8.254;2023-05-01T14:50:53;5.17;;;4.67;;
4933;SDS011;2482;49.154;8.254;2023-05-01T14:53:20;5.27;;;4.77;;
4933;SDS011;2482;49.154;8.254;2023-05-01T14:55:49;7.33;;;5.20;;
4933;SDS011;2482;49.154;8.254;2023-05-01T14:58:17;5.73;;;4.77;;
4933;SDS011;2482;49.154;8.254;2023-05-01T15:00:44;7.17;;;5.00;;
4933;SDS011;2482;49.154;8.254;2023-05-01T15:03:11;4.93;;;4.43;;
4933;SDS011;2482;49.154;8.254;2023-05-01T15:05:38;5.53;;;5.00;;
4933;SDS011;2482;49.154;8.254;2023-05-01T15:08:07;5.00;;;4.60;;
4933;SDS011;2482;49.154;8.254;2023-05-01T15:10:34;6.20;;;5.37;;
4933;SDS011;2482;49.154;8.254;2023-05-01T15:13:04;5.83;;;5.23;;
4933;SDS011;2482;49.154;8.254;2023-05-01T15:15:32;4.70;;;4.30;;
4933;SDS011;2482;49.154;8.254;2023-05-01T15:17:58;5.47;;;4.97;;
4933;SDS011;2482;49.154;8.254;2023-05-01T15:20:25;4.50;;;4.10;;
4933;SDS011;2482;49.154;8.254;2023-05-01T15:22:53;5.00;;;4.60;;
4933;SDS011;2482;49.154;8.254;2023-05-01T15:25:20;5.87;;;5.23;;
4933;SDS011;2482;49.154;8.254;2023-05-01T15:27:47;6.13;;;4.80;;
4933;SDS011;2482;49.154;8.254;2023-05-01T15:30:15;5.57;;;4.63;;
4933;SDS011;2482;49.154;8.254;2023-05-01T15:32:42;7.40;;;4.40;;
4933;SDS011;2482;49.154;8.254;2023-05-01T15:35:09;5.57;;;4.33;;
4933;SDS011;2482;49.154;8.254;2023-05-01T15:37:36;4.93;;;4.43;;
4933;SDS011;2482;49.154;8.254;2023-05-01T15:40:04;6.53;;;4.90;;
4933;SDS011;2482;49.154;8.254;2023-05-01T15:42:32;5.27;;;4.73;;
4933;SDS011;2482;49.154;8.254;2023-05-01T15:44:59;6.37;;;5.20;;
4933;SDS011;2482;49.154;8.254;2023-05-01T15:47:28;6.73;;;6.07;;
4933;SDS011;2482;49.154;8.254;2023-05-01T15:49:55;5.13;;;4.63;;
4933;SDS011;2482;49.154;8.254;2023-05-01T15:52:22;7.03;;;4.70;;
4933;SDS011;2482;49.154;8.254;2023-05-01T15:54:49;5.50;;;5.00;;
4933;SDS011;2482;49.154;8.254;2023-05-01T15:57:17;5.93;;;5.30;;
4933;SDS011;2482;49.154;8.254;2023-05-01T15:59:43;6.30;;;5.57;;
4933;SDS011;2482;49.154;8.254;2023-05-01T16:02:10;7.37;;;4.90;;
4933;SDS011;2482;49.154;8.254;2023-05-01T16:04:38;9.33;;;5.23;;
4933;SDS011;2482;49.154;8.254;2023-05-01T16:07:05;5.43;;;4.40;;
4933;SDS011;2482;49.154;8.254;2023-05-01T16:09:34;4.60;;;3.93;;
4933;SDS011;2482;49.154;8.254;2023-05-01T16:12:01;7.03;;;6.33;;
4933;SDS011;2482;49.154;8.254;2023-05-01T16:14:28;5.70;;;5.20;;